createdAt,value
2023-05-28T00:02:31.495Z,18.49
2023-05-28T00:04:58.654Z,18.48
2023-05-28T00:07:25.887Z,18.44
2023-05-28T00:09:52.937Z,18.42
2023-05-28T00:12:19.963Z,18.39
2023-05-28T00:14:48.384Z,18.37
2023-05-28T00:17:17.116Z,18.34
2023-05-28T00:19:44.773Z,18.33
2023-05-28T00:22:12.640Z,18.32
2023-05-28T00:24:39.692Z,18.31
2023-05-28T00:27:07.542Z,18.29
2023-05-28T00:29:34.733Z,18.28
2023-05-28T00:32:01.898Z,18.26
2023-05-28T00:34:29.132Z,18.24
2023-05-28T00:36:56.456Z,18.21
2023-05-28T00:39:23.620Z,18.20
2023-05-28T00:42:02.329Z,18.18
2023-05-28T00:44:30.072Z,18.16
2023-05-28T00:46:57.637Z,18.15
2023-05-28T00:49:25.275Z,18.16
2023-05-28T00:51:52.996Z,18.14
2023-05-28T00:54:20.081Z,18.13
2023-05-28T00:56:48.400Z,18.11
2023-05-28T00:59:17.834Z,18.10
2023-05-28T01:01:44.982Z,18.07
2023-05-28T01:04:12.413Z,18.04
2023-05-28T01:06:40.274Z,18.06
2023-05-28T01:09:08.191Z,18.04
2023-05-28T01:11:37.501Z,18.02
2023-05-28T01:14:06.718Z,18.03
2023-05-28T01:16:34.754Z,18.02
2023-05-28T01:19:04.288Z,18.00
2023-05-28T01:21:32.440Z,18.00
2023-05-28T01:24:01.516Z,18.00
2023-05-28T01:26:29.667Z,17.98
2023-05-28T01:28:57.754Z,17.96
2023-05-28T01:31:24.805Z,17.93
2023-05-28T01:33:51.917Z,17.94
2023-05-28T01:36:37.536Z,17.92
2023-05-28T01:39:06.051Z,17.90
2023-05-28T01:41:33.191Z,17.87
2023-05-28T01:44:01.529Z,17.88
2023-05-28T01:46:28.978Z,17.86
2023-05-28T01:48:56.471Z,17.82
2023-05-28T01:51:25.372Z,17.84
2023-05-28T01:53:52.886Z,17.82
2023-05-28T01:56:20.446Z,17.81
2023-05-28T01:58:47.410Z,17.81
2023-05-28T02:01:29.016Z,17.79
2023-05-28T02:03:57.611Z,17.78
2023-05-28T02:06:26.092Z,17.78
2023-05-28T02:08:53.857Z,17.77
2023-05-28T02:11:21.177Z,17.75
2023-05-28T02:13:48.421Z,17.73
2023-05-28T02:16:19.036Z,17.72
2023-05-28T02:18:46.669Z,17.71
2023-05-28T02:21:14.142Z,17.70
2023-05-28T02:23:44.799Z,17.68
2023-05-28T02:26:12.303Z,17.67
2023-05-28T02:28:39.420Z,17.67
2023-05-28T02:31:06.964Z,17.65
2023-05-28T02:33:34.638Z,17.65
2023-05-28T02:36:01.635Z,17.65
2023-05-28T02:38:28.587Z,17.65
2023-05-28T02:40:55.655Z,17.64
2023-05-28T02:43:22.734Z,17.64
2023-05-28T02:45:49.774Z,17.63
2023-05-28T02:48:16.791Z,17.63
2023-05-28T02:50:43.760Z,17.61
2023-05-28T02:53:10.783Z,17.61
2023-05-28T02:55:37.800Z,17.61
2023-05-28T02:58:04.772Z,17.60
2023-05-28T03:00:31.716Z,17.59
2023-05-28T03:02:59.117Z,17.56
2023-05-28T03:05:26.145Z,17.56
2023-05-28T03:07:53.096Z,17.54
2023-05-28T03:10:20.117Z,17.53
2023-05-28T03:12:47.133Z,17.51
2023-05-28T03:15:15.746Z,17.48
2023-05-28T03:17:42.786Z,17.45
2023-05-28T03:20:12.031Z,17.45
2023-05-28T03:22:40.027Z,17.45
2023-05-28T03:25:07.611Z,17.45
2023-05-28T03:27:34.657Z,17.44
2023-05-28T03:30:01.686Z,17.42
2023-05-28T03:32:28.727Z,17.42
2023-05-28T03:34:55.726Z,17.40
2023-05-28T03:37:22.760Z,17.40
2023-05-28T03:39:49.714Z,17.39
2023-05-28T03:42:16.670Z,17.39
2023-05-28T03:44:43.655Z,17.36
2023-05-28T03:47:10.675Z,17.35
2023-05-28T03:49:37.700Z,17.34
2023-05-28T03:52:04.865Z,17.34
2023-05-28T03:54:32.811Z,17.31
2023-05-28T03:57:00.108Z,17.29
2023-05-28T03:59:27.164Z,17.29
2023-05-28T04:01:54.214Z,17.28
2023-05-28T04:06:49.184Z,17.29
2023-05-28T04:09:16.778Z,17.28
2023-05-28T04:11:43.783Z,17.28
2023-05-28T04:14:10.801Z,17.27
2023-05-28T04:16:37.998Z,17.24
2023-05-28T04:19:05.052Z,17.23
2023-05-28T04:21:32.174Z,17.24
2023-05-28T04:23:59.365Z,17.22
2023-05-28T04:26:26.471Z,17.23
2023-05-28T04:28:54.587Z,17.22
2023-05-28T04:31:21.793Z,17.20
2023-05-28T04:33:49.196Z,17.19
2023-05-28T04:36:16.317Z,17.19
2023-05-28T04:38:43.517Z,17.19
2023-05-28T04:41:14.700Z,17.16
2023-05-28T04:43:42.835Z,17.20
2023-05-28T04:46:13.285Z,17.16
2023-05-28T04:48:40.295Z,17.11
2023-05-28T04:51:07.388Z,17.14
2023-05-28T04:53:35.275Z,17.12
2023-05-28T04:56:02.522Z,17.11
2023-05-28T04:58:29.695Z,17.11
2023-05-28T05:00:57.215Z,17.10
2023-05-28T05:03:24.278Z,17.08
2023-05-28T05:05:51.338Z,17.08
2023-05-28T05:08:18.364Z,17.06
2023-05-28T05:10:45.386Z,17.06
2023-05-28T05:13:12.545Z,17.05
2023-05-28T05:15:39.742Z,17.06
2023-05-28T05:18:06.895Z,17.05
2023-05-28T05:20:34.082Z,17.03
2023-05-28T05:23:01.114Z,17.03
2023-05-28T05:25:28.080Z,17.00
2023-05-28T05:27:55.147Z,17.03
2023-05-28T05:30:22.272Z,17.01
2023-05-28T05:32:49.348Z,17.02
2023-05-28T05:35:16.540Z,17.01
2023-05-28T05:37:43.567Z,17.00
2023-05-28T05:40:11.270Z,16.99
2023-05-28T05:42:38.858Z,16.98
2023-05-28T05:45:07.492Z,16.98
2023-05-28T05:47:34.677Z,16.96
2023-05-28T05:50:01.947Z,16.96
2023-05-28T05:52:28.906Z,16.96
2023-05-28T05:54:56.084Z,16.96
2023-05-28T05:57:23.231Z,16.95
2023-05-28T05:59:50.345Z,16.94
2023-05-28T06:02:17.550Z,16.94
2023-05-28T06:04:44.542Z,16.93
2023-05-28T06:07:12.232Z,16.92
2023-05-28T06:09:39.242Z,16.91
2023-05-28T06:12:06.489Z,16.92
2023-05-28T06:14:34.017Z,16.93
2023-05-28T06:17:01.111Z,16.94
2023-05-28T06:19:28.239Z,16.92
2023-05-28T06:21:55.401Z,16.92
2023-05-28T06:24:22.863Z,16.93
2023-05-28T06:26:49.961Z,16.90
2023-05-28T06:29:18.039Z,16.91
2023-05-28T06:31:45.222Z,16.94
2023-05-28T06:34:12.255Z,16.94
2023-05-28T06:36:39.614Z,16.95
2023-05-28T06:39:06.781Z,16.96
2023-05-28T06:41:33.814Z,17.01
2023-05-28T06:44:01.399Z,17.04
2023-05-28T06:46:29.673Z,17.05
2023-05-28T06:48:57.060Z,17.10
2023-05-28T06:51:24.159Z,17.15
2023-05-28T06:53:51.571Z,17.15
2023-05-28T06:56:18.624Z,17.16
2023-05-28T06:58:45.838Z,17.17
2023-05-28T07:01:13.015Z,17.21
2023-05-28T07:03:40.110Z,17.24
2023-05-28T07:06:07.198Z,17.29
2023-05-28T07:08:34.872Z,17.32
2023-05-28T07:11:02.021Z,17.36
2023-05-28T07:13:29.045Z,17.41
2023-05-28T07:15:56.378Z,17.44
2023-05-28T07:18:25.465Z,17.50
2023-05-28T07:20:53.157Z,17.55
2023-05-28T07:23:20.619Z,17.59
2023-05-28T07:25:48.135Z,17.61
2023-05-28T07:28:15.509Z,17.65
2023-05-28T07:30:43.716Z,17.69
2023-05-28T07:33:10.868Z,17.73
2023-05-28T07:35:38.138Z,17.75
2023-05-28T07:38:05.320Z,17.80
2023-05-28T07:40:32.605Z,17.81
2023-05-28T07:42:59.790Z,17.82
2023-05-28T07:45:27.071Z,17.87
2023-05-28T07:47:54.257Z,17.86
2023-05-28T07:50:21.765Z,17.88
2023-05-28T07:52:49.177Z,17.90
2023-05-28T07:55:16.854Z,17.91
2023-05-28T07:57:44.227Z,17.91
2023-05-28T08:00:14.306Z,17.94
2023-05-28T08:02:42.041Z,17.95
2023-05-28T08:05:10.158Z,17.98
2023-05-28T08:07:38.000Z,17.99
2023-05-28T08:10:06.157Z,17.99
2023-05-28T08:12:33.526Z,18.01
2023-05-28T08:15:00.748Z,18.00
2023-05-28T08:17:33.411Z,18.00
2023-05-28T08:20:02.677Z,18.00
2023-05-28T08:22:30.604Z,17.99
2023-05-28T08:24:57.825Z,17.99
2023-05-28T08:27:25.000Z,17.99
2023-05-28T08:29:52.185Z,18.01
2023-05-28T08:32:19.362Z,18.02
2023-05-28T08:34:46.582Z,17.99
2023-05-28T08:37:15.045Z,18.00
2023-05-28T08:39:42.235Z,18.05
2023-05-28T08:42:09.436Z,18.17
2023-05-28T08:44:37.040Z,18.25
2023-05-28T08:47:05.121Z,18.25
2023-05-28T08:49:36.135Z,18.06
2023-05-28T08:52:04.140Z,17.90
2023-05-28T08:54:31.657Z,18.05
2023-05-28T08:56:59.980Z,18.18
2023-05-28T08:59:28.933Z,18.30
2023-05-28T09:01:57.609Z,18.31
2023-05-28T09:04:24.674Z,18.32
2023-05-28T09:06:55.394Z,18.37
2023-05-28T09:09:22.562Z,18.31
2023-05-28T09:11:49.712Z,18.29
2023-05-28T09:14:19.263Z,18.33
2023-05-28T09:16:47.086Z,18.31
2023-05-28T09:19:17.232Z,18.33
2023-05-28T09:22:02.836Z,18.37
2023-05-28T09:24:33.235Z,18.37
2023-05-28T09:27:00.364Z,18.18
2023-05-28T09:29:28.040Z,17.94
2023-05-28T09:31:59.928Z,17.86
2023-05-28T09:34:28.467Z,17.88
2023-05-28T09:37:01.569Z,17.85
2023-05-28T09:39:29.113Z,17.95
2023-05-28T09:42:10.731Z,17.80
2023-05-28T09:44:40.577Z,17.65
2023-05-28T09:47:18.832Z,17.58
2023-05-28T09:49:47.920Z,17.55
2023-05-28T09:52:22.648Z,17.43
2023-05-28T09:55:01.543Z,17.41
2023-05-28T09:57:31.926Z,17.34
2023-05-28T10:00:03.148Z,17.22
2023-05-28T10:02:57.653Z,17.24
2023-05-28T10:05:29.700Z,17.25
2023-05-28T10:07:58.074Z,17.24
2023-05-28T10:10:27.418Z,17.31
2023-05-28T10:12:56.523Z,17.42
2023-05-28T10:15:23.727Z,17.51
2023-05-28T10:17:52.206Z,17.51
2023-05-28T10:20:23.337Z,17.59
2023-05-28T10:22:51.119Z,17.61
2023-05-28T10:25:18.575Z,17.68
2023-05-28T10:27:47.493Z,17.59
2023-05-28T10:30:32.476Z,17.62
2023-05-28T10:32:59.688Z,17.61
2023-05-28T10:35:27.106Z,17.61
2023-05-28T10:38:07.795Z,17.69
2023-05-28T10:40:40.968Z,17.71
2023-05-28T10:43:39.916Z,17.74
2023-05-28T10:46:11.719Z,17.74
2023-05-28T10:48:40.813Z,17.68
2023-05-28T10:51:07.980Z,17.63
2023-05-28T10:53:35.197Z,17.60
2023-05-28T10:56:03.637Z,17.64
2023-05-28T10:58:38.089Z,17.64
2023-05-28T11:01:11.435Z,17.64
2023-05-28T11:03:46.671Z,17.63
2023-05-28T11:06:14.726Z,17.55
2023-05-28T11:08:43.549Z,17.58
2023-05-28T11:11:17.489Z,17.64
2023-05-28T11:13:48.820Z,17.71
2023-05-28T11:16:18.647Z,17.69
2023-05-28T11:19:03.232Z,17.69
2023-05-28T11:21:30.364Z,17.71
2023-05-28T11:24:05.322Z,17.65
2023-05-28T11:26:35.581Z,17.61
2023-05-28T11:29:06.093Z,17.63
2023-05-28T11:31:44.131Z,17.62
2023-05-28T11:34:11.476Z,17.63
2023-05-28T11:36:45.680Z,17.68
2023-05-28T11:39:14.294Z,17.69
2023-05-28T11:41:41.447Z,17.73
2023-05-28T11:44:24.006Z,17.67
2023-05-28T11:46:53.391Z,17.65
2023-05-28T11:49:21.528Z,17.67
2023-05-28T11:51:52.839Z,17.62
2023-05-28T11:54:20.424Z,17.56
2023-05-28T11:56:52.277Z,17.51
2023-05-28T11:59:21.743Z,17.47
2023-05-28T12:01:48.846Z,17.51
2023-05-28T12:04:16.088Z,17.56
2023-05-28T12:06:54.137Z,17.49
2023-05-28T12:09:21.600Z,17.42
2023-05-28T12:12:08.390Z,17.54
2023-05-28T12:14:35.513Z,17.53
2023-05-28T12:17:12.077Z,17.57
2023-05-28T12:19:39.269Z,17.58
2023-05-28T12:22:20.433Z,17.61
2023-05-28T12:24:55.183Z,17.68
2023-05-28T12:27:22.364Z,17.76
2023-05-28T12:29:49.642Z,17.80
2023-05-28T12:32:17.081Z,17.75
2023-05-28T12:34:45.325Z,17.80
2023-05-28T12:37:12.502Z,17.83
2023-05-28T12:39:39.803Z,17.86
2023-05-28T12:42:08.154Z,17.86
2023-05-28T12:44:35.333Z,17.90
2023-05-28T12:47:02.449Z,17.85
2023-05-28T12:49:29.716Z,17.82
2023-05-28T12:51:56.976Z,17.72
2023-05-28T12:54:24.080Z,17.75
2023-05-28T12:56:51.443Z,17.77
2023-05-28T12:59:23.235Z,17.75
2023-05-28T13:01:51.006Z,17.76
2023-05-28T13:04:18.692Z,17.84
2023-05-28T13:06:46.233Z,17.86
2023-05-28T13:09:13.839Z,17.77
2023-05-28T13:11:44.414Z,17.70
2023-05-28T13:14:11.576Z,17.73
2023-05-28T13:16:39.024Z,17.74
2023-05-28T13:19:06.306Z,17.77
2023-05-28T13:21:36.578Z,17.78
2023-05-28T13:24:05.534Z,17.82
2023-05-28T13:26:35.069Z,17.84
2023-05-28T13:29:04.996Z,17.86
2023-05-28T13:31:32.370Z,17.93
2023-05-28T13:34:01.168Z,17.96
2023-05-28T13:36:31.586Z,17.93
2023-05-28T13:38:58.841Z,17.85
2023-05-28T13:41:26.603Z,17.87
2023-05-28T13:43:55.110Z,17.90
2023-05-28T13:46:23.643Z,17.88
2023-05-28T13:48:52.197Z,17.86
2023-05-28T13:51:19.713Z,17.88
2023-05-28T13:53:47.948Z,17.87
2023-05-28T13:56:16.117Z,17.90
2023-05-28T13:58:43.467Z,17.97
2023-05-28T14:01:12.052Z,18.02
2023-05-28T14:03:39.405Z,18.04
2023-05-28T14:06:06.831Z,18.06
2023-05-28T14:08:33.849Z,18.08
2023-05-28T14:11:00.886Z,18.13
2023-05-28T14:13:32.962Z,18.16
2023-05-28T14:16:00.513Z,18.19
2023-05-28T14:18:28.125Z,18.22
2023-05-28T14:20:55.545Z,18.26
2023-05-28T14:23:22.963Z,18.25
2023-05-28T14:25:50.197Z,18.29
2023-05-28T14:28:17.349Z,18.31
2023-05-28T14:30:45.089Z,18.32
2023-05-28T14:33:12.341Z,18.34
2023-05-28T14:35:39.688Z,18.33
2023-05-28T14:38:06.820Z,18.28
2023-05-28T14:40:34.017Z,18.22
2023-05-28T14:43:01.318Z,18.24
2023-05-28T14:45:28.437Z,18.21
2023-05-28T14:47:55.750Z,18.20
2023-05-28T14:50:23.216Z,18.17
2023-05-28T14:52:50.329Z,18.15
2023-05-28T14:55:20.109Z,18.11
2023-05-28T14:57:48.063Z,18.12
2023-05-28T15:00:15.537Z,18.13
2023-05-28T15:02:43.514Z,18.14
2023-05-28T15:05:11.001Z,18.11
2023-05-28T15:07:38.239Z,18.09
2023-05-28T15:10:05.993Z,18.17
2023-05-28T15:12:33.314Z,18.16
2023-05-28T15:15:01.065Z,18.11
2023-05-28T15:17:28.252Z,18.11
2023-05-28T15:19:55.585Z,18.14
2023-05-28T15:22:23.712Z,18.12
2023-05-28T15:24:51.372Z,18.11
2023-05-28T15:27:18.605Z,18.10
2023-05-28T15:29:46.006Z,18.12
2023-05-28T15:32:14.696Z,18.12
2023-05-28T15:34:42.270Z,18.13
2023-05-28T15:37:09.661Z,18.15
2023-05-28T15:39:37.078Z,18.12
2023-05-28T15:42:06.826Z,18.13
2023-05-28T15:44:36.320Z,18.15
2023-05-28T15:47:03.612Z,18.14
2023-05-28T15:49:31.526Z,18.13
2023-05-28T15:52:02.013Z,18.15
2023-05-28T15:54:29.409Z,18.18
2023-05-28T15:56:56.988Z,18.18
2023-05-28T15:59:24.343Z,18.21
2023-05-28T16:01:55.801Z,18.21
2023-05-28T16:04:24.426Z,18.22
2023-05-28T16:06:51.989Z,18.23
2023-05-28T16:09:19.277Z,18.22
2023-05-28T16:11:50.908Z,18.23
2023-05-28T16:14:20.710Z,18.24
2023-05-28T16:16:51.693Z,18.32
2023-05-28T16:19:19.250Z,18.32
2023-05-28T16:21:46.702Z,18.32
2023-05-28T16:24:14.412Z,18.35
2023-05-28T16:26:42.546Z,18.35
2023-05-28T16:29:09.920Z,18.34
2023-05-28T16:31:38.058Z,18.34
2023-05-28T16:34:05.457Z,18.35
2023-05-28T16:36:35.117Z,18.31
2023-05-28T16:39:04.820Z,18.31
2023-05-28T16:41:32.140Z,18.32
2023-05-28T16:43:59.656Z,18.31
2023-05-28T16:46:28.068Z,18.14
2023-05-28T16:48:55.971Z,18.06
2023-05-28T16:51:23.531Z,18.02
2023-05-28T16:53:51.638Z,17.95
2023-05-28T16:56:20.295Z,17.67
2023-05-28T16:58:48.728Z,17.78
2023-05-28T17:01:23.032Z,17.66
2023-05-28T17:03:55.031Z,17.65
2023-05-28T17:06:22.488Z,17.59
2023-05-28T17:08:49.640Z,17.54
2023-05-28T17:11:17.087Z,17.65
2023-05-28T17:13:44.385Z,17.70
2023-05-28T17:16:11.722Z,17.76
2023-05-28T17:18:41.554Z,17.80
2023-05-28T17:21:09.453Z,17.86
2023-05-28T17:23:36.718Z,17.85
2023-05-28T17:26:03.934Z,17.86
2023-05-28T17:28:31.034Z,17.80
2023-05-28T17:30:59.840Z,17.89
2023-05-28T17:33:28.072Z,17.91
2023-05-28T17:35:55.106Z,17.95
2023-05-28T17:38:22.363Z,18.02
2023-05-28T17:40:51.494Z,18.03
2023-05-28T17:43:19.092Z,18.07
2023-05-28T17:45:47.856Z,18.09
2023-05-28T17:48:16.381Z,18.16
2023-05-28T17:50:43.521Z,18.20
2023-05-28T17:53:11.071Z,18.22
2023-05-28T17:55:38.181Z,18.25
2023-05-28T17:58:05.433Z,18.25
2023-05-28T18:00:32.844Z,18.33
2023-05-28T18:03:03.174Z,18.38
2023-05-28T18:05:32.978Z,18.42
2023-05-28T18:08:00.237Z,18.40
2023-05-28T18:10:27.635Z,18.41
2023-05-28T18:12:54.852Z,18.48
2023-05-28T18:15:29.011Z,18.48
2023-05-28T18:17:58.070Z,18.51
2023-05-28T18:20:25.534Z,18.47
2023-05-28T18:22:52.794Z,18.49
2023-05-28T18:25:20.081Z,18.49
2023-05-28T18:27:48.469Z,18.52
2023-05-28T18:30:15.817Z,18.57
2023-05-28T18:32:43.038Z,18.60
2023-05-28T18:35:10.442Z,18.67
2023-05-28T18:37:37.714Z,18.79
2023-05-28T18:40:05.587Z,18.80
2023-05-28T18:42:32.686Z,18.81
2023-05-28T18:45:02.731Z,18.85
2023-05-28T18:47:30.123Z,18.87
2023-05-28T18:49:57.336Z,18.88
2023-05-28T18:52:25.005Z,18.90
2023-05-28T18:54:54.292Z,18.92
2023-05-28T18:57:22.129Z,18.94
2023-05-28T18:59:49.333Z,18.95
2023-05-28T19:02:16.804Z,18.97
2023-05-28T19:04:44.201Z,19.00
2023-05-28T19:07:11.552Z,19.01
2023-05-28T19:09:38.965Z,19.02
2023-05-28T19:12:07.992Z,19.03
2023-05-28T19:14:35.812Z,19.04
2023-05-28T19:17:04.814Z,19.06
2023-05-28T19:19:32.211Z,19.09
2023-05-28T19:22:00.278Z,19.09
2023-05-28T19:24:27.515Z,19.09
2023-05-28T19:26:58.388Z,19.08
2023-05-28T19:30:24.751Z,19.10
2023-05-28T19:32:52.025Z,19.12
2023-05-28T19:35:19.332Z,19.20
2023-05-28T19:37:50.437Z,19.18
2023-05-28T19:40:17.532Z,19.21
2023-05-28T19:42:44.699Z,19.20
2023-05-28T19:45:12.873Z,19.21
2023-05-28T19:47:40.391Z,19.18
2023-05-28T19:50:09.249Z,19.08
2023-05-28T19:52:36.519Z,18.84
2023-05-28T19:55:04.225Z,18.82
2023-05-28T19:57:31.566Z,18.92
2023-05-28T19:59:59.411Z,18.97
2023-05-28T20:02:28.280Z,18.98
2023-05-28T20:04:59.385Z,18.99
2023-05-28T20:07:27.421Z,19.00
2023-05-28T20:09:54.898Z,18.99
2023-05-28T20:12:22.348Z,19.01
2023-05-28T20:14:49.694Z,19.00
2023-05-28T20:17:17.527Z,19.01
2023-05-28T20:19:47.002Z,18.99
2023-05-28T20:22:14.544Z,18.99
2023-05-28T20:24:42.166Z,18.97
2023-05-28T20:27:09.717Z,18.98
2023-05-28T20:29:38.636Z,18.96
2023-05-28T20:32:10.321Z,18.96
2023-05-28T20:34:38.045Z,18.95
2023-05-28T20:37:10.074Z,18.94
2023-05-28T20:39:37.874Z,18.95
2023-05-28T20:42:05.742Z,18.93
2023-05-28T20:44:37.360Z,18.93
2023-05-28T20:47:06.632Z,18.93
2023-05-28T20:49:34.044Z,18.92
2023-05-28T20:52:01.504Z,18.91
2023-05-28T20:54:29.402Z,18.91
2023-05-28T20:56:57.367Z,18.90
2023-05-28T20:59:29.332Z,18.89
2023-05-28T21:01:57.701Z,18.92
2023-05-28T21:04:27.167Z,18.88
2023-05-28T21:06:54.469Z,18.83
2023-05-28T21:09:22.014Z,18.76
2023-05-28T21:11:49.655Z,18.68
2023-05-28T21:14:17.272Z,18.65
2023-05-28T21:16:44.889Z,18.61
2023-05-28T21:19:12.500Z,18.58
2023-05-28T21:21:39.923Z,18.56
2023-05-28T21:24:07.517Z,18.52
2023-05-28T21:26:34.997Z,18.51
2023-05-28T21:29:02.688Z,18.47
2023-05-28T21:31:30.280Z,18.47
2023-05-28T21:33:57.382Z,18.44
2023-05-28T21:36:24.545Z,18.44
2023-05-28T21:38:52.066Z,18.41
2023-05-28T21:41:19.602Z,18.39
2023-05-28T21:43:46.794Z,18.38
2023-05-28T21:46:14.265Z,18.37
2023-05-28T21:48:41.769Z,18.36
2023-05-28T21:51:09.155Z,18.34
2023-05-28T21:53:36.270Z,18.34
2023-05-28T21:56:03.513Z,18.30
2023-05-28T21:58:31.399Z,18.29
2023-05-28T22:00:58.558Z,18.25
2023-05-28T22:03:26.849Z,18.24
2023-05-28T22:05:54.024Z,18.24
2023-05-28T22:08:22.557Z,18.20
2023-05-28T22:10:49.646Z,18.20
2023-05-28T22:13:19.200Z,18.18
2023-05-28T22:15:46.796Z,18.17
2023-05-28T22:18:18.244Z,18.17
2023-05-28T22:20:46.215Z,18.15
2023-05-28T22:23:13.703Z,18.15
2023-05-28T22:25:42.632Z,18.14
2023-05-28T22:28:09.995Z,18.13
2023-05-28T22:30:37.704Z,18.11
2023-05-28T22:33:05.118Z,18.09
2023-05-28T22:35:33.173Z,18.08
2023-05-28T22:38:00.325Z,18.06
2023-05-28T22:40:29.432Z,18.05
2023-05-28T22:42:56.722Z,18.03
2023-05-28T22:45:23.950Z,18.01
2023-05-28T22:47:54.282Z,18.02
2023-05-28T22:50:21.681Z,18.00
2023-05-28T22:52:50.537Z,17.98
2023-05-28T22:55:18.451Z,17.95
2023-05-28T22:57:46.207Z,17.92
2023-05-28T23:00:13.705Z,17.92
2023-05-28T23:02:44.363Z,17.90
2023-05-28T23:05:13.611Z,17.89
2023-05-28T23:07:41.985Z,17.88
2023-05-28T23:10:10.067Z,17.86
2023-05-28T23:12:37.963Z,17.84
2023-05-28T23:15:05.778Z,17.81
2023-05-28T23:17:33.146Z,17.80
2023-05-28T23:20:01.151Z,17.80
2023-05-28T23:22:28.320Z,17.78
2023-05-28T23:24:55.381Z,17.77
2023-05-28T23:27:22.363Z,17.77
2023-05-28T23:29:49.430Z,17.76
2023-05-28T23:32:16.708Z,17.72
2023-05-28T23:34:44.025Z,17.73
2023-05-28T23:37:11.205Z,17.75
2023-05-28T23:39:38.206Z,17.72
2023-05-28T23:42:06.817Z,17.71
2023-05-28T23:44:34.158Z,17.72
2023-05-28T23:47:01.331Z,17.69
2023-05-28T23:49:28.444Z,17.69
2023-05-28T23:51:55.475Z,17.67
2023-05-28T23:54:23.143Z,17.67
2023-05-28T23:56:50.274Z,17.66
2023-05-28T23:59:17.292Z,17.62
